sensor_id;sensor_type;location;lat;lon;timestamp;P1;durP1;ratioP1;P2;durP2;ratioP2
51006;SDS011;37034;47.886;-3.904;2022-10-31T00:01:17;28.63;;;3.53;;
51006;SDS011;37034;47.886;-3.904;2022-10-31T00:03:42;19.03;;;2.90;;
51006;SDS011;37034;47.886;-3.904;2022-10-31T00:06:08;26.10;;;2.95;;
51006;SDS011;37034;47.886;-3.904;2022-10-31T00:08:34;20.88;;;3.55;;
51006;SDS011;37034;47.886;-3.904;2022-10-31T00:11:00;32.42;;;3.40;;
51006;SDS011;37034;47.886;-3.904;2022-10-31T00:13:26;24.73;;;2.88;;
51006;SDS011;37034;47.886;-3.904;2022-10-31T00:15:52;27.30;;;3.78;;
51006;SDS011;37034;47.886;-3.904;2022-10-31T00:18:20;26.67;;;2.83;;
51006;SDS011;37034;47.886;-3.904;2022-10-31T00:20:46;26.70;;;2.97;;
51006;SDS011;37034;47.886;-3.904;2022-10-31T00:23:11;34.50;;;3.07;;
51006;SDS011;37034;47.886;-3.904;2022-10-31T00:25:38;20.05;;;3.17;;
51006;SDS011;37034;47.886;-3.904;2022-10-31T00:28:05;21.50;;;2.85;;
51006;SDS011;37034;47.886;-3.904;2022-10-31T00:30:32;25.60;;;3.72;;
51006;SDS011;37034;47.886;-3.904;2022-10-31T00:32:58;26.60;;;3.45;;
51006;SDS011;37034;47.886;-3.904;2022-10-31T00:35:24;25.17;;;2.72;;
51006;SDS011;37034;47.886;-3.904;2022-10-31T00:37:49;23.80;;;3.08;;
51006;SDS011;37034;47.886;-3.904;2022-10-31T00:40:15;22.77;;;3.13;;
51006;SDS011;37034;47.886;-3.904;2022-10-31T00:42:41;21.50;;;2.13;;
51006;SDS011;37034;47.886;-3.904;2022-10-31T00:45:10;31.83;;;2.78;;
51006;SDS011;37034;47.886;-3.904;2022-10-31T00:47:36;21.52;;;2.53;;
51006;SDS011;37034;47.886;-3.904;2022-10-31T00:50:03;17.92;;;2.95;;
51006;SDS011;37034;47.886;-3.904;2022-10-31T00:52:30;26.92;;;3.00;;
51006;SDS011;37034;47.886;-3.904;2022-10-31T00:54:55;25.17;;;2.72;;
51006;SDS011;37034;47.886;-3.904;2022-10-31T00:57:21;28.87;;;3.67;;
51006;SDS011;37034;47.886;-3.904;2022-10-31T00:59:47;28.48;;;3.42;;
51006;SDS011;37034;47.886;-3.904;2022-10-31T01:02:12;18.80;;;2.75;;
51006;SDS011;37034;47.886;-3.904;2022-10-31T01:04:38;25.23;;;2.80;;
51006;SDS011;37034;47.886;-3.904;2022-10-31T01:07:04;28.83;;;3.27;;
51006;SDS011;37034;47.886;-3.904;2022-10-31T01:09:30;19.35;;;2.13;;
51006;SDS011;37034;47.886;-3.904;2022-10-31T01:11:55;20.55;;;2.72;;
51006;SDS011;37034;47.886;-3.904;2022-10-31T01:14:21;28.53;;;3.23;;
51006;SDS011;37034;47.886;-3.904;2022-10-31T01:16:50;17.00;;;2.42;;
51006;SDS011;37034;47.886;-3.904;2022-10-31T01:19:15;25.57;;;2.80;;
51006;SDS011;37034;47.886;-3.904;2022-10-31T01:21:41;22.80;;;2.35;;
51006;SDS011;37034;47.886;-3.904;2022-10-31T01:24:13;25.33;;;2.70;;
51006;SDS011;37034;47.886;-3.904;2022-10-31T01:26:39;15.33;;;1.80;;
51006;SDS011;37034;47.886;-3.904;2022-10-31T01:29:06;15.67;;;2.33;;
51006;SDS011;37034;47.886;-3.904;2022-10-31T01:31:37;18.77;;;2.40;;
51006;SDS011;37034;47.886;-3.904;2022-10-31T01:34:03;28.75;;;3.05;;
51006;SDS011;37034;47.886;-3.904;2022-10-31T01:36:30;27.15;;;3.17;;
51006;SDS011;37034;47.886;-3.904;2022-10-31T01:38:59;20.27;;;3.00;;
51006;SDS011;37034;47.886;-3.904;2022-10-31T01:41:28;21.15;;;2.55;;
51006;SDS011;37034;47.886;-3.904;2022-10-31T01:43:56;21.13;;;2.20;;
51006;SDS011;37034;47.886;-3.904;2022-10-31T01:46:48;28.10;;;3.55;;
51006;SDS011;37034;47.886;-3.904;2022-10-31T01:52:23;18.77;;;1.90;;
51006;SDS011;37034;47.886;-3.904;2022-10-31T01:54:54;15.93;;;2.00;;
51006;SDS011;37034;47.886;-3.904;2022-10-31T01:57:28;24.30;;;3.30;;
51006;SDS011;37034;47.886;-3.904;2022-10-31T01:59:57;22.65;;;3.90;;
51006;SDS011;37034;47.886;-3.904;2022-10-31T02:02:27;19.98;;;2.30;;
51006;SDS011;37034;47.886;-3.904;2022-10-31T02:04:55;15.13;;;2.13;;
51006;SDS011;37034;47.886;-3.904;2022-10-31T02:07:25;24.20;;;3.25;;
51006;SDS011;37034;47.886;-3.904;2022-10-31T02:10:04;15.00;;;1.80;;
51006;SDS011;37034;47.886;-3.904;2022-10-31T02:12:30;20.52;;;2.13;;
51006;SDS011;37034;47.886;-3.904;2022-10-31T02:14:57;23.75;;;2.38;;
51006;SDS011;37034;47.886;-3.904;2022-10-31T02:17:25;19.45;;;2.03;;
51006;SDS011;37034;47.886;-3.904;2022-10-31T02:20:00;18.48;;;2.35;;
51006;SDS011;37034;47.886;-3.904;2022-10-31T02:25:27;15.82;;;1.85;;
51006;SDS011;37034;47.886;-3.904;2022-10-31T02:43:44;17.50;;;2.10;;
51006;SDS011;37034;47.886;-3.904;2022-10-31T02:49:15;14.13;;;1.40;;
51006;SDS011;37034;47.886;-3.904;2022-10-31T02:51:47;16.15;;;2.78;;
51006;SDS011;37034;47.886;-3.904;2022-10-31T02:54:21;15.68;;;1.85;;
51006;SDS011;37034;47.886;-3.904;2022-10-31T02:56:49;15.63;;;2.22;;
51006;SDS011;37034;47.886;-3.904;2022-10-31T02:59:24;16.10;;;1.60;;
51006;SDS011;37034;47.886;-3.904;2022-10-31T03:04:43;22.30;;;2.53;;
51006;SDS011;37034;47.886;-3.904;2022-10-31T03:12:26;15.95;;;1.92;;
51006;SDS011;37034;47.886;-3.904;2022-10-31T03:17:27;16.80;;;2.28;;
51006;SDS011;37034;47.886;-3.904;2022-10-31T03:20:08;19.52;;;1.88;;
51006;SDS011;37034;47.886;-3.904;2022-10-31T03:22:35;13.73;;;1.92;;
51006;SDS011;37034;47.886;-3.904;2022-10-31T03:25:05;16.08;;;2.60;;
51006;SDS011;37034;47.886;-3.904;2022-10-31T03:27:33;17.95;;;1.77;;
51006;SDS011;37034;47.886;-3.904;2022-10-31T03:30:02;13.30;;;1.48;;
51006;SDS011;37034;47.886;-3.904;2022-10-31T03:32:34;13.57;;;2.03;;
51006;SDS011;37034;47.886;-3.904;2022-10-31T03:35:05;18.25;;;1.92;;
51006;SDS011;37034;47.886;-3.904;2022-10-31T03:37:33;16.17;;;2.28;;
51006;SDS011;37034;47.886;-3.904;2022-10-31T03:40:01;13.65;;;2.13;;
51006;SDS011;37034;47.886;-3.904;2022-10-31T03:42:30;11.90;;;1.85;;
51006;SDS011;37034;47.886;-3.904;2022-10-31T03:45:10;16.85;;;2.05;;
51006;SDS011;37034;47.886;-3.904;2022-10-31T03:47:42;12.52;;;2.00;;
51006;SDS011;37034;47.886;-3.904;2022-10-31T03:50:09;11.30;;;1.75;;
51006;SDS011;37034;47.886;-3.904;2022-10-31T03:55:29;14.98;;;1.48;;
51006;SDS011;37034;47.886;-3.904;2022-10-31T03:58:05;12.82;;;1.55;;
51006;SDS011;37034;47.886;-3.904;2022-10-31T04:00:35;14.98;;;1.88;;
51006;SDS011;37034;47.886;-3.904;2022-10-31T04:03:07;15.18;;;1.45;;
51006;SDS011;37034;47.886;-3.904;2022-10-31T04:05:37;14.40;;;1.88;;
51006;SDS011;37034;47.886;-3.904;2022-10-31T04:08:04;13.68;;;1.63;;
51006;SDS011;37034;47.886;-3.904;2022-10-31T04:10:34;15.10;;;1.92;;
51006;SDS011;37034;47.886;-3.904;2022-10-31T04:13:06;14.27;;;2.03;;
51006;SDS011;37034;47.886;-3.904;2022-10-31T04:15:34;14.98;;;1.65;;
51006;SDS011;37034;47.886;-3.904;2022-10-31T04:18:01;12.68;;;1.60;;
51006;SDS011;37034;47.886;-3.904;2022-10-31T04:20:34;16.25;;;1.75;;
51006;SDS011;37034;47.886;-3.904;2022-10-31T04:23:02;15.98;;;1.60;;
51006;SDS011;37034;47.886;-3.904;2022-10-31T04:25:29;13.50;;;1.70;;
51006;SDS011;37034;47.886;-3.904;2022-10-31T04:27:55;13.97;;;1.60;;
51006;SDS011;37034;47.886;-3.904;2022-10-31T04:30:20;9.80;;;1.55;;
51006;SDS011;37034;47.886;-3.904;2022-10-31T04:32:46;14.27;;;1.73;;
51006;SDS011;37034;47.886;-3.904;2022-10-31T04:35:12;10.23;;;1.33;;
51006;SDS011;37034;47.886;-3.904;2022-10-31T04:37:38;17.42;;;2.10;;
51006;SDS011;37034;47.886;-3.904;2022-10-31T04:40:03;14.63;;;1.97;;
51006;SDS011;37034;47.886;-3.904;2022-10-31T04:42:29;12.13;;;1.40;;
51006;SDS011;37034;47.886;-3.904;2022-10-31T04:44:55;13.85;;;1.80;;
51006;SDS011;37034;47.886;-3.904;2022-10-31T04:47:21;15.33;;;1.80;;
51006;SDS011;37034;47.886;-3.904;2022-10-31T04:49:47;9.83;;;1.67;;
51006;SDS011;37034;47.886;-3.904;2022-10-31T04:52:12;18.30;;;1.80;;
51006;SDS011;37034;47.886;-3.904;2022-10-31T04:54:38;17.93;;;1.60;;
51006;SDS011;37034;47.886;-3.904;2022-10-31T04:57:04;14.93;;;1.50;;
51006;SDS011;37034;47.886;-3.904;2022-10-31T04:59:29;19.77;;;2.00;;
51006;SDS011;37034;47.886;-3.904;2022-10-31T05:01:55;13.10;;;2.03;;
51006;SDS011;37034;47.886;-3.904;2022-10-31T05:04:21;13.23;;;1.80;;
51006;SDS011;37034;47.886;-3.904;2022-10-31T05:06:46;14.68;;;1.80;;
51006;SDS011;37034;47.886;-3.904;2022-10-31T05:09:12;15.55;;;2.22;;
51006;SDS011;37034;47.886;-3.904;2022-10-31T05:11:38;13.03;;;1.60;;
51006;SDS011;37034;47.886;-3.904;2022-10-31T05:14:03;15.77;;;2.87;;
51006;SDS011;37034;47.886;-3.904;2022-10-31T05:16:29;10.57;;;1.70;;
51006;SDS011;37034;47.886;-3.904;2022-10-31T05:18:55;15.68;;;1.95;;
51006;SDS011;37034;47.886;-3.904;2022-10-31T05:21:21;12.82;;;1.85;;
51006;SDS011;37034;47.886;-3.904;2022-10-31T05:23:46;20.95;;;2.42;;
51006;SDS011;37034;47.886;-3.904;2022-10-31T05:26:12;23.85;;;4.20;;
51006;SDS011;37034;47.886;-3.904;2022-10-31T05:28:37;19.93;;;2.73;;
51006;SDS011;37034;47.886;-3.904;2022-10-31T05:31:03;21.17;;;2.90;;
51006;SDS011;37034;47.886;-3.904;2022-10-31T05:33:29;13.43;;;2.10;;
51006;SDS011;37034;47.886;-3.904;2022-10-31T05:35:55;16.08;;;2.28;;
51006;SDS011;37034;47.886;-3.904;2022-10-31T05:38:20;18.40;;;2.17;;
51006;SDS011;37034;47.886;-3.904;2022-10-31T05:40:46;13.43;;;2.15;;
51006;SDS011;37034;47.886;-3.904;2022-10-31T05:43:12;16.63;;;2.07;;
51006;SDS011;37034;47.886;-3.904;2022-10-31T05:45:37;14.80;;;2.00;;
51006;SDS011;37034;47.886;-3.904;2022-10-31T05:48:03;16.20;;;2.00;;
51006;SDS011;37034;47.886;-3.904;2022-10-31T05:50:30;22.60;;;2.53;;
51006;SDS011;37034;47.886;-3.904;2022-10-31T05:55:22;18.58;;;2.20;;
51006;SDS011;37034;47.886;-3.904;2022-10-31T05:57:48;14.30;;;1.90;;
51006;SDS011;37034;47.886;-3.904;2022-10-31T06:00:14;18.73;;;2.17;;
51006;SDS011;37034;47.886;-3.904;2022-10-31T06:02:39;18.25;;;2.67;;
51006;SDS011;37034;47.886;-3.904;2022-10-31T06:05:05;18.17;;;2.10;;
51006;SDS011;37034;47.886;-3.904;2022-10-31T06:07:34;18.65;;;2.38;;
51006;SDS011;37034;47.886;-3.904;2022-10-31T06:10:01;11.05;;;1.77;;
51006;SDS011;37034;47.886;-3.904;2022-10-31T06:12:28;15.55;;;2.50;;
51006;SDS011;37034;47.886;-3.904;2022-10-31T06:14:53;16.77;;;1.93;;
51006;SDS011;37034;47.886;-3.904;2022-10-31T06:17:19;15.30;;;2.10;;
51006;SDS011;37034;47.886;-3.904;2022-10-31T06:19:45;14.52;;;2.10;;
51006;SDS011;37034;47.886;-3.904;2022-10-31T06:22:11;22.70;;;3.20;;
51006;SDS011;37034;47.886;-3.904;2022-10-31T06:24:37;21.83;;;2.45;;
51006;SDS011;37034;47.886;-3.904;2022-10-31T06:27:03;12.32;;;1.70;;
51006;SDS011;37034;47.886;-3.904;2022-10-31T06:31:55;10.13;;;1.70;;
51006;SDS011;37034;47.886;-3.904;2022-10-31T06:34:21;14.50;;;2.23;;
51006;SDS011;37034;47.886;-3.904;2022-10-31T06:36:47;15.77;;;2.00;;
51006;SDS011;37034;47.886;-3.904;2022-10-31T06:39:13;14.43;;;2.00;;
51006;SDS011;37034;47.886;-3.904;2022-10-31T06:41:39;12.95;;;1.73;;
51006;SDS011;37034;47.886;-3.904;2022-10-31T06:44:06;20.58;;;2.30;;
51006;SDS011;37034;47.886;-3.904;2022-10-31T06:46:32;15.35;;;2.20;;
51006;SDS011;37034;47.886;-3.904;2022-10-31T06:48:57;15.68;;;2.40;;
51006;SDS011;37034;47.886;-3.904;2022-10-31T06:51:23;16.13;;;2.67;;
51006;SDS011;37034;47.886;-3.904;2022-10-31T06:53:49;16.57;;;2.13;;
51006;SDS011;37034;47.886;-3.904;2022-10-31T06:56:14;38.63;;;4.50;;
51006;SDS011;37034;47.886;-3.904;2022-10-31T06:58:40;11.87;;;2.90;;
51006;SDS011;37034;47.886;-3.904;2022-10-31T07:01:06;32.87;;;3.97;;
51006;SDS011;37034;47.886;-3.904;2022-10-31T07:03:31;13.55;;;3.25;;
51006;SDS011;37034;47.886;-3.904;2022-10-31T07:05:57;14.23;;;3.33;;
51006;SDS011;37034;47.886;-3.904;2022-10-31T07:08:23;22.90;;;4.20;;
51006;SDS011;37034;47.886;-3.904;2022-10-31T07:10:53;12.32;;;3.55;;
51006;SDS011;37034;47.886;-3.904;2022-10-31T07:13:20;18.30;;;4.15;;
51006;SDS011;37034;47.886;-3.904;2022-10-31T07:15:51;12.85;;;3.90;;
51006;SDS011;37034;47.886;-3.904;2022-10-31T07:18:18;11.93;;;4.13;;
51006;SDS011;37034;47.886;-3.904;2022-10-31T07:20:44;18.55;;;4.28;;
51006;SDS011;37034;47.886;-3.904;2022-10-31T07:23:10;13.43;;;3.37;;
51006;SDS011;37034;47.886;-3.904;2022-10-31T07:25:37;15.45;;;3.85;;
51006;SDS011;37034;47.886;-3.904;2022-10-31T07:28:03;14.85;;;3.17;;
51006;SDS011;37034;47.886;-3.904;2022-10-31T07:30:29;16.10;;;3.90;;
51006;SDS011;37034;47.886;-3.904;2022-10-31T07:32:54;12.43;;;3.60;;
51006;SDS011;37034;47.886;-3.904;2022-10-31T07:35:21;12.25;;;3.28;;
51006;SDS011;37034;47.886;-3.904;2022-10-31T07:37:48;14.75;;;3.38;;
51006;SDS011;37034;47.886;-3.904;2022-10-31T07:40:15;7.20;;;2.83;;
51006;SDS011;37034;47.886;-3.904;2022-10-31T07:42:48;17.33;;;3.25;;
51006;SDS011;37034;47.886;-3.904;2022-10-31T07:45:18;14.00;;;2.55;;
51006;SDS011;37034;47.886;-3.904;2022-10-31T07:47:48;12.88;;;3.53;;
51006;SDS011;37034;47.886;-3.904;2022-10-31T07:50:16;15.60;;;2.97;;
51006;SDS011;37034;47.886;-3.904;2022-10-31T07:52:43;10.98;;;2.40;;
51006;SDS011;37034;47.886;-3.904;2022-10-31T07:55:09;11.02;;;2.42;;
51006;SDS011;37034;47.886;-3.904;2022-10-31T07:57:38;11.82;;;2.88;;
51006;SDS011;37034;47.886;-3.904;2022-10-31T08:00:05;15.95;;;2.50;;
51006;SDS011;37034;47.886;-3.904;2022-10-31T08:02:32;13.30;;;2.28;;
51006;SDS011;37034;47.886;-3.904;2022-10-31T08:04:58;17.05;;;2.55;;
51006;SDS011;37034;47.886;-3.904;2022-10-31T08:07:25;12.20;;;2.33;;
51006;SDS011;37034;47.886;-3.904;2022-10-31T08:09:51;12.38;;;1.83;;
51006;SDS011;37034;47.886;-3.904;2022-10-31T08:12:17;12.52;;;2.10;;
51006;SDS011;37034;47.886;-3.904;2022-10-31T08:14:48;14.27;;;2.10;;
51006;SDS011;37034;47.886;-3.904;2022-10-31T08:17:21;10.13;;;1.98;;
51006;SDS011;37034;47.886;-3.904;2022-10-31T08:19:48;13.52;;;2.17;;
51006;SDS011;37034;47.886;-3.904;2022-10-31T08:22:14;13.57;;;2.25;;
51006;SDS011;37034;47.886;-3.904;2022-10-31T08:24:40;11.20;;;1.83;;
51006;SDS011;37034;47.886;-3.904;2022-10-31T08:27:06;11.07;;;2.00;;
51006;SDS011;37034;47.886;-3.904;2022-10-31T08:29:31;11.05;;;2.38;;
51006;SDS011;37034;47.886;-3.904;2022-10-31T08:31:57;6.72;;;2.35;;
51006;SDS011;37034;47.886;-3.904;2022-10-31T08:34:24;7.10;;;2.13;;
51006;SDS011;37034;47.886;-3.904;2022-10-31T08:36:51;12.38;;;2.67;;
51006;SDS011;37034;47.886;-3.904;2022-10-31T08:41:42;7.82;;;1.73;;
51006;SDS011;37034;47.886;-3.904;2022-10-31T08:44:08;9.63;;;2.63;;
51006;SDS011;37034;47.886;-3.904;2022-10-31T08:46:34;8.57;;;1.67;;
51006;SDS011;37034;47.886;-3.904;2022-10-31T08:49:00;8.80;;;1.95;;
51006;SDS011;37034;47.886;-3.904;2022-10-31T08:51:26;11.75;;;2.10;;
51006;SDS011;37034;47.886;-3.904;2022-10-31T08:53:52;7.47;;;1.30;;
51006;SDS011;37034;47.886;-3.904;2022-10-31T08:56:17;5.90;;;1.70;;
51006;SDS011;37034;47.886;-3.904;2022-10-31T08:58:44;11.02;;;2.08;;
51006;SDS011;37034;47.886;-3.904;2022-10-31T09:01:30;10.73;;;2.70;;
51006;SDS011;37034;47.886;-3.904;2022-10-31T09:04:09;7.13;;;2.10;;
51006;SDS011;37034;47.886;-3.904;2022-10-31T09:06:35;8.47;;;2.20;;
51006;SDS011;37034;47.886;-3.904;2022-10-31T09:09:01;9.77;;;2.40;;
51006;SDS011;37034;47.886;-3.904;2022-10-31T09:11:26;8.02;;;1.85;;
51006;SDS011;37034;47.886;-3.904;2022-10-31T09:13:54;4.40;;;1.88;;
51006;SDS011;37034;47.886;-3.904;2022-10-31T09:16:20;9.57;;;1.90;;
51006;SDS011;37034;47.886;-3.904;2022-10-31T09:18:46;6.40;;;1.70;;
51006;SDS011;37034;47.886;-3.904;2022-10-31T09:21:11;7.32;;;1.92;;
51006;SDS011;37034;47.886;-3.904;2022-10-31T09:23:37;10.60;;;2.50;;
51006;SDS011;37034;47.886;-3.904;2022-10-31T09:26:03;5.60;;;1.50;;
51006;SDS011;37034;47.886;-3.904;2022-10-31T09:28:29;6.43;;;1.98;;
51006;SDS011;37034;47.886;-3.904;2022-10-31T09:30:56;6.25;;;1.70;;
51006;SDS011;37034;47.886;-3.904;2022-10-31T09:33:25;7.68;;;1.98;;
51006;SDS011;37034;47.886;-3.904;2022-10-31T09:35:50;7.73;;;1.93;;
51006;SDS011;37034;47.886;-3.904;2022-10-31T09:38:18;6.97;;;2.20;;
51006;SDS011;37034;47.886;-3.904;2022-10-31T09:51:53;9.52;;;2.38;;
51006;SDS011;37034;47.886;-3.904;2022-10-31T09:54:43;6.90;;;1.95;;
51006;SDS011;37034;47.886;-3.904;2022-10-31T09:57:13;8.50;;;1.90;;
51006;SDS011;37034;47.886;-3.904;2022-10-31T09:59:40;7.85;;;2.08;;
51006;SDS011;37034;47.886;-3.904;2022-10-31T10:02:20;6.50;;;1.65;;
51006;SDS011;37034;47.886;-3.904;2022-10-31T10:16:00;6.85;;;2.00;;
51006;SDS011;37034;47.886;-3.904;2022-10-31T10:24:03;5.72;;;2.05;;
51006;SDS011;37034;47.886;-3.904;2022-10-31T10:26:58;7.88;;;2.15;;
51006;SDS011;37034;47.886;-3.904;2022-10-31T10:32:22;11.68;;;2.65;;
51006;SDS011;37034;47.886;-3.904;2022-10-31T10:34:51;4.47;;;1.88;;
51006;SDS011;37034;47.886;-3.904;2022-10-31T10:37:30;10.43;;;2.50;;
51006;SDS011;37034;47.886;-3.904;2022-10-31T10:40:13;8.18;;;2.47;;
51006;SDS011;37034;47.886;-3.904;2022-10-31T10:42:50;9.80;;;2.88;;
51006;SDS011;37034;47.886;-3.904;2022-10-31T10:49:02;9.55;;;3.60;;
51006;SDS011;37034;47.886;-3.904;2022-10-31T10:51:48;8.77;;;3.70;;
51006;SDS011;37034;47.886;-3.904;2022-10-31T10:59:37;17.67;;;5.03;;
51006;SDS011;37034;47.886;-3.904;2022-10-31T11:02:16;14.25;;;4.60;;
51006;SDS011;37034;47.886;-3.904;2022-10-31T11:04:43;12.68;;;4.93;;
51006;SDS011;37034;47.886;-3.904;2022-10-31T11:07:13;19.77;;;5.05;;
51006;SDS011;37034;47.886;-3.904;2022-10-31T11:09:39;16.88;;;4.70;;
51006;SDS011;37034;47.886;-3.904;2022-10-31T11:12:08;18.02;;;5.25;;
51006;SDS011;37034;47.886;-3.904;2022-10-31T11:14:45;14.77;;;5.45;;
51006;SDS011;37034;47.886;-3.904;2022-10-31T11:17:22;13.70;;;4.30;;
51006;SDS011;37034;47.886;-3.904;2022-10-31T11:19:59;20.67;;;5.60;;
51006;SDS011;37034;47.886;-3.904;2022-10-31T11:22:31;15.93;;;4.95;;
51006;SDS011;37034;47.886;-3.904;2022-10-31T11:24:56;17.55;;;5.15;;
51006;SDS011;37034;47.886;-3.904;2022-10-31T11:27:23;22.43;;;5.93;;
51006;SDS011;37034;47.886;-3.904;2022-10-31T11:29:50;18.13;;;4.57;;
51006;SDS011;37034;47.886;-3.904;2022-10-31T11:32:23;19.20;;;4.90;;
51006;SDS011;37034;47.886;-3.904;2022-10-31T11:34:52;16.90;;;4.70;;
51006;SDS011;37034;47.886;-3.904;2022-10-31T11:37:23;20.10;;;5.13;;
51006;SDS011;37034;47.886;-3.904;2022-10-31T11:39:55;17.08;;;4.20;;
51006;SDS011;37034;47.886;-3.904;2022-10-31T11:42:38;18.70;;;5.10;;
51006;SDS011;37034;47.886;-3.904;2022-10-31T11:47:49;19.40;;;5.35;;
51006;SDS011;37034;47.886;-3.904;2022-10-31T11:50:20;18.25;;;4.93;;
51006;SDS011;37034;47.886;-3.904;2022-10-31T11:52:51;18.23;;;5.20;;
51006;SDS011;37034;47.886;-3.904;2022-10-31T11:55:33;21.60;;;5.93;;
51006;SDS011;37034;47.886;-3.904;2022-10-31T11:58:00;17.70;;;5.47;;
51006;SDS011;37034;47.886;-3.904;2022-10-31T12:00:28;19.85;;;6.10;;
51006;SDS011;37034;47.886;-3.904;2022-10-31T12:03:14;16.58;;;4.88;;
51006;SDS011;37034;47.886;-3.904;2022-10-31T12:05:49;16.23;;;5.70;;
51006;SDS011;37034;47.886;-3.904;2022-10-31T12:08:17;18.50;;;5.90;;
51006;SDS011;37034;47.886;-3.904;2022-10-31T12:13:40;18.92;;;5.50;;
51006;SDS011;37034;47.886;-3.904;2022-10-31T12:16:28;24.58;;;5.90;;
51006;SDS011;37034;47.886;-3.904;2022-10-31T12:19:05;28.57;;;6.73;;
51006;SDS011;37034;47.886;-3.904;2022-10-31T12:37:52;32.90;;;7.50;;
51006;SDS011;37034;47.886;-3.904;2022-10-31T12:46:16;28.05;;;8.18;;
51006;SDS011;37034;47.886;-3.904;2022-10-31T12:48:57;26.90;;;7.20;;
51006;SDS011;37034;47.886;-3.904;2022-10-31T12:57:10;37.83;;;7.20;;
51006;SDS011;37034;47.886;-3.904;2022-10-31T13:00:03;32.85;;;7.28;;
51006;SDS011;37034;47.886;-3.904;2022-10-31T13:05:40;27.27;;;6.07;;
51006;SDS011;37034;47.886;-3.904;2022-10-31T13:08:10;24.90;;;5.65;;
51006;SDS011;37034;47.886;-3.904;2022-10-31T13:15:58;35.97;;;6.82;;
51006;SDS011;37034;47.886;-3.904;2022-10-31T13:21:30;24.52;;;6.10;;
51006;SDS011;37034;47.886;-3.904;2022-10-31T13:24:02;26.33;;;5.45;;
51006;SDS011;37034;47.886;-3.904;2022-10-31T13:26:46;35.40;;;7.28;;
51006;SDS011;37034;47.886;-3.904;2022-10-31T13:31:54;27.95;;;6.53;;
51006;SDS011;37034;47.886;-3.904;2022-10-31T13:34:24;41.53;;;7.78;;
51006;SDS011;37034;47.886;-3.904;2022-10-31T13:42:49;31.65;;;7.28;;
51006;SDS011;37034;47.886;-3.904;2022-10-31T13:45:18;33.58;;;7.88;;
51006;SDS011;37034;47.886;-3.904;2022-10-31T13:47:55;35.33;;;8.10;;
51006;SDS011;37034;47.886;-3.904;2022-10-31T13:50:39;31.95;;;7.68;;
51006;SDS011;37034;47.886;-3.904;2022-10-31T13:55:44;33.17;;;8.35;;
51006;SDS011;37034;47.886;-3.904;2022-10-31T13:58:22;31.50;;;8.35;;
51006;SDS011;37034;47.886;-3.904;2022-10-31T14:03:47;38.75;;;7.65;;
51006;SDS011;37034;47.886;-3.904;2022-10-31T14:06:23;38.58;;;8.38;;
51006;SDS011;37034;47.886;-3.904;2022-10-31T14:09:05;33.95;;;7.05;;
51006;SDS011;37034;47.886;-3.904;2022-10-31T14:11:45;36.30;;;8.02;;
51006;SDS011;37034;47.886;-3.904;2022-10-31T14:14:12;39.70;;;9.00;;
51006;SDS011;37034;47.886;-3.904;2022-10-31T14:19:13;43.75;;;8.20;;
51006;SDS011;37034;47.886;-3.904;2022-10-31T14:21:42;30.73;;;6.72;;
51006;SDS011;37034;47.886;-3.904;2022-10-31T14:24:30;35.83;;;8.18;;
51006;SDS011;37034;47.886;-3.904;2022-10-31T14:26:59;40.08;;;8.23;;
51006;SDS011;37034;47.886;-3.904;2022-10-31T14:29:28;29.80;;;6.63;;
51006;SDS011;37034;47.886;-3.904;2022-10-31T14:34:39;28.42;;;5.53;;
51006;SDS011;37034;47.886;-3.904;2022-10-31T14:45:37;58.15;;;7.68;;
51006;SDS011;37034;47.886;-3.904;2022-10-31T14:51:02;42.85;;;5.82;;
51006;SDS011;37034;47.886;-3.904;2022-10-31T14:53:48;29.15;;;4.78;;
51006;SDS011;37034;47.886;-3.904;2022-10-31T14:56:19;28.55;;;3.28;;
51006;SDS011;37034;47.886;-3.904;2022-10-31T14:58:49;31.65;;;4.22;;
51006;SDS011;37034;47.886;-3.904;2022-10-31T15:03:48;35.53;;;3.58;;
51006;SDS011;37034;47.886;-3.904;2022-10-31T15:06:15;29.13;;;4.15;;
51006;SDS011;37034;47.886;-3.904;2022-10-31T15:08:50;23.40;;;2.58;;
51006;SDS011;37034;47.886;-3.904;2022-10-31T15:11:21;30.95;;;4.28;;
51006;SDS011;37034;47.886;-3.904;2022-10-31T15:13:52;33.17;;;4.13;;
51006;SDS011;37034;47.886;-3.904;2022-10-31T15:16:26;30.23;;;4.00;;
51006;SDS011;37034;47.886;-3.904;2022-10-31T15:19:20;37.60;;;4.18;;
51006;SDS011;37034;47.886;-3.904;2022-10-31T15:21:49;34.00;;;4.20;;
51006;SDS011;37034;47.886;-3.904;2022-10-31T15:24:17;41.45;;;4.57;;
51006;SDS011;37034;47.886;-3.904;2022-10-31T15:26:50;38.03;;;4.28;;
51006;SDS011;37034;47.886;-3.904;2022-10-31T15:29:19;38.38;;;4.30;;
51006;SDS011;37034;47.886;-3.904;2022-10-31T15:31:55;42.83;;;5.68;;
51006;SDS011;37034;47.886;-3.904;2022-10-31T15:34:37;42.78;;;5.72;;
51006;SDS011;37034;47.886;-3.904;2022-10-31T15:37:26;27.52;;;4.32;;
51006;SDS011;37034;47.886;-3.904;2022-10-31T15:39:51;42.92;;;5.53;;
51006;SDS011;37034;47.886;-3.904;2022-10-31T15:42:19;32.78;;;4.57;;
51006;SDS011;37034;47.886;-3.904;2022-10-31T15:47:28;41.22;;;4.40;;
51006;SDS011;37034;47.886;-3.904;2022-10-31T15:49:56;38.60;;;5.13;;
51006;SDS011;37034;47.886;-3.904;2022-10-31T15:52:34;34.35;;;3.90;;
51006;SDS011;37034;47.886;-3.904;2022-10-31T15:55:16;28.13;;;4.20;;
51006;SDS011;37034;47.886;-3.904;2022-10-31T15:57:55;34.22;;;4.85;;
51006;SDS011;37034;47.886;-3.904;2022-10-31T16:00:25;36.63;;;5.93;;
51006;SDS011;37034;47.886;-3.904;2022-10-31T16:05:50;36.17;;;4.68;;
51006;SDS011;37034;47.886;-3.904;2022-10-31T16:08:22;36.53;;;4.25;;
51006;SDS011;37034;47.886;-3.904;2022-10-31T16:10:53;31.23;;;4.25;;
51006;SDS011;37034;47.886;-3.904;2022-10-31T16:13:34;42.00;;;5.18;;
51006;SDS011;37034;47.886;-3.904;2022-10-31T16:16:19;40.47;;;5.00;;
51006;SDS011;37034;47.886;-3.904;2022-10-31T16:18:46;36.20;;;4.45;;
51006;SDS011;37034;47.886;-3.904;2022-10-31T16:23:43;38.92;;;5.35;;
51006;SDS011;37034;47.886;-3.904;2022-10-31T16:26:13;35.90;;;5.28;;
51006;SDS011;37034;47.886;-3.904;2022-10-31T16:28:50;45.78;;;5.63;;
51006;SDS011;37034;47.886;-3.904;2022-10-31T16:31:25;42.30;;;5.60;;
51006;SDS011;37034;47.886;-3.904;2022-10-31T16:34:03;49.80;;;6.55;;
51006;SDS011;37034;47.886;-3.904;2022-10-31T16:36:36;52.03;;;6.80;;
51006;SDS011;37034;47.886;-3.904;2022-10-31T16:39:04;60.67;;;7.97;;
51006;SDS011;37034;47.886;-3.904;2022-10-31T16:41:30;49.30;;;6.30;;
51006;SDS011;37034;47.886;-3.904;2022-10-31T16:43:59;36.40;;;4.88;;
51006;SDS011;37034;47.886;-3.904;2022-10-31T16:46:27;38.67;;;4.07;;
51006;SDS011;37034;47.886;-3.904;2022-10-31T16:48:53;35.28;;;4.63;;
51006;SDS011;37034;47.886;-3.904;2022-10-31T16:53:45;34.33;;;4.28;;
51006;SDS011;37034;47.886;-3.904;2022-10-31T16:56:15;37.75;;;4.40;;
51006;SDS011;37034;47.886;-3.904;2022-10-31T16:58:43;33.40;;;4.85;;
51006;SDS011;37034;47.886;-3.904;2022-10-31T17:01:10;27.33;;;4.38;;
51006;SDS011;37034;47.886;-3.904;2022-10-31T17:03:37;47.78;;;5.03;;
51006;SDS011;37034;47.886;-3.904;2022-10-31T17:06:08;31.58;;;3.72;;
51006;SDS011;37034;47.886;-3.904;2022-10-31T17:08:37;31.73;;;3.70;;
51006;SDS011;37034;47.886;-3.904;2022-10-31T17:11:03;39.83;;;5.05;;
51006;SDS011;37034;47.886;-3.904;2022-10-31T17:13:30;33.42;;;4.25;;
51006;SDS011;37034;47.886;-3.904;2022-10-31T17:16:02;31.20;;;4.35;;
51006;SDS011;37034;47.886;-3.904;2022-10-31T17:18:28;22.50;;;3.33;;
51006;SDS011;37034;47.886;-3.904;2022-10-31T17:20:58;28.67;;;3.67;;
51006;SDS011;37034;47.886;-3.904;2022-10-31T17:23:27;42.25;;;4.60;;
51006;SDS011;37034;47.886;-3.904;2022-10-31T17:25:53;28.05;;;3.50;;
51006;SDS011;37034;47.886;-3.904;2022-10-31T17:28:19;34.90;;;4.70;;
51006;SDS011;37034;47.886;-3.904;2022-10-31T17:30:45;33.70;;;5.07;;